sensor_id;sensor_type;location;lat;lon;timestamp;pressure;altitude;pressure_sealevel;temperature;humidity
44441;BME280;30146;52.268;20.944;2023-07-13T00:01:52;99879.56;;;20.97;63.31
44441;BME280;30146;52.268;20.944;2023-07-13T00:04:24;99877.97;;;20.94;63.52
44441;BME280;30146;52.268;20.944;2023-07-13T00:06:55;99881.73;;;20.93;63.75
44441;BME280;30146;52.268;20.944;2023-07-13T00:09:27;99883.52;;;20.92;63.73
44441;BME280;30146;52.268;20.944;2023-07-13T00:11:58;99879.26;;;20.90;63.71
44441;BME280;30146;52.268;20.944;2023-07-13T00:14:30;99877.23;;;20.89;63.68
44441;BME280;30146;52.268;20.944;2023-07-13T00:17:02;99870.02;;;20.88;63.84
44441;BME280;30146;52.268;20.944;2023-07-13T00:19:33;99865.36;;;20.87;63.76
44441;BME280;30146;52.268;20.944;2023-07-13T00:22:06;99860.41;;;20.86;63.80
44441;BME280;30146;52.268;20.944;2023-07-13T00:24:37;99861.02;;;20.84;63.81
44441;BME280;30146;52.268;20.944;2023-07-13T00:27:11;99867.63;;;20.84;63.95
44441;BME280;30146;52.268;20.944;2023-07-13T00:29:43;99866.80;;;20.84;63.96
44441;BME280;30146;52.268;20.944;2023-07-13T00:32:14;99865.65;;;20.83;63.90
44441;BME280;30146;52.268;20.944;2023-07-13T00:34:45;99866.42;;;20.81;63.94
44441;BME280;30146;52.268;20.944;2023-07-13T00:37:16;99866.48;;;20.81;64.07
44441;BME280;30146;52.268;20.944;2023-07-13T00:39:47;99867.17;;;20.81;64.11
44441;BME280;30146;52.268;20.944;2023-07-13T00:42:19;99863.70;;;20.81;64.17
44441;BME280;30146;52.268;20.944;2023-07-13T00:46:02;99866.82;;;20.81;64.10
44441;BME280;30146;52.268;20.944;2023-07-13T00:47:59;99870.97;;;20.81;64.20
44441;BME280;30146;52.268;20.944;2023-07-13T00:50:30;99868.39;;;20.80;64.17
44441;BME280;30146;52.268;20.944;2023-07-13T00:53:01;99861.33;;;20.80;64.00
44441;BME280;30146;52.268;20.944;2023-07-13T00:55:33;99857.68;;;20.80;64.23
44441;BME280;30146;52.268;20.944;2023-07-13T00:58:04;99861.25;;;20.78;64.32
44441;BME280;30146;52.268;20.944;2023-07-13T01:00:37;99864.73;;;20.78;64.28
44441;BME280;30146;52.268;20.944;2023-07-13T01:03:09;99861.45;;;20.78;64.22
44441;BME280;30146;52.268;20.944;2023-07-13T01:05:40;99857.60;;;20.78;64.44
44441;BME280;30146;52.268;20.944;2023-07-13T01:08:11;99858.48;;;20.78;64.23
44441;BME280;30146;52.268;20.944;2023-07-13T01:10:42;99861.73;;;20.75;64.33
44441;BME280;30146;52.268;20.944;2023-07-13T01:13:21;99859.38;;;20.74;64.33
44441;BME280;30146;52.268;20.944;2023-07-13T01:15:55;99859.03;;;20.71;64.27
44441;BME280;30146;52.268;20.944;2023-07-13T01:18:29;99861.22;;;20.67;64.14
44441;BME280;30146;52.268;20.944;2023-07-13T01:21:03;99862.76;;;20.64;64.28
44441;BME280;30146;52.268;20.944;2023-07-13T01:23:34;99860.72;;;20.60;64.45
44441;BME280;30146;52.268;20.944;2023-07-13T01:26:05;99865.34;;;20.58;64.36
44441;BME280;30146;52.268;20.944;2023-07-13T01:28:39;99863.05;;;20.55;64.37
44441;BME280;30146;52.268;20.944;2023-07-13T01:31:11;99864.71;;;20.54;64.72
44441;BME280;30146;52.268;20.944;2023-07-13T01:33:42;99866.40;;;20.52;64.65
44441;BME280;30146;52.268;20.944;2023-07-13T01:36:13;99873.44;;;20.50;64.64
44441;BME280;30146;52.268;20.944;2023-07-13T01:38:44;99884.36;;;20.47;64.75
44441;BME280;30146;52.268;20.944;2023-07-13T01:41:15;99886.40;;;20.45;64.77
44441;BME280;30146;52.268;20.944;2023-07-13T01:43:48;99896.47;;;20.45;64.88
44441;BME280;30146;52.268;20.944;2023-07-13T01:46:19;99897.70;;;20.45;64.98
44441;BME280;30146;52.268;20.944;2023-07-13T01:48:52;99890.02;;;20.46;65.07
44441;BME280;30146;52.268;20.944;2023-07-13T01:51:24;99886.86;;;20.46;64.93
44441;BME280;30146;52.268;20.944;2023-07-13T01:53:55;99887.04;;;20.46;65.16
44441;BME280;30146;52.268;20.944;2023-07-13T01:56:26;99884.38;;;20.47;65.08
44441;BME280;30146;52.268;20.944;2023-07-13T01:58:57;99888.86;;;20.48;65.18
44441;BME280;30146;52.268;20.944;2023-07-13T02:01:29;99888.84;;;20.48;65.21
44441;BME280;30146;52.268;20.944;2023-07-13T02:04:00;99889.28;;;20.46;65.04
44441;BME280;30146;52.268;20.944;2023-07-13T02:06:32;99882.20;;;20.46;65.06
44441;BME280;30146;52.268;20.944;2023-07-13T02:09:03;99883.67;;;20.44;65.08
44441;BME280;30146;52.268;20.944;2023-07-13T02:11:35;99891.39;;;20.43;64.99
44441;BME280;30146;52.268;20.944;2023-07-13T02:14:06;99896.02;;;20.41;65.03
44441;BME280;30146;52.268;20.944;2023-07-13T02:16:37;99893.41;;;20.38;64.92
44441;BME280;30146;52.268;20.944;2023-07-13T02:19:08;99897.27;;;20.34;65.04
44441;BME280;30146;52.268;20.944;2023-07-13T02:21:39;99895.21;;;20.31;65.09
44441;BME280;30146;52.268;20.944;2023-07-13T02:24:10;99895.35;;;20.28;65.16
44441;BME280;30146;52.268;20.944;2023-07-13T02:26:47;99897.93;;;20.25;65.20
44441;BME280;30146;52.268;20.944;2023-07-13T02:29:18;99901.48;;;20.21;65.15
44441;BME280;30146;52.268;20.944;2023-07-13T02:31:49;99903.77;;;20.17;65.42
44441;BME280;30146;52.268;20.944;2023-07-13T02:34:20;99902.55;;;20.14;65.33
44441;BME280;30146;52.268;20.944;2023-07-13T02:36:51;99909.61;;;20.12;65.67
44441;BME280;30146;52.268;20.944;2023-07-13T02:39:22;99910.63;;;20.10;65.69
44441;BME280;30146;52.268;20.944;2023-07-13T02:41:54;99905.41;;;20.07;65.67
44441;BME280;30146;52.268;20.944;2023-07-13T02:44:25;99906.39;;;20.05;65.75
44441;BME280;30146;52.268;20.944;2023-07-13T02:46:56;99906.30;;;20.03;65.91
44441;BME280;30146;52.268;20.944;2023-07-13T02:49:27;99908.46;;;20.02;66.05
44441;BME280;30146;52.268;20.944;2023-07-13T02:51:58;99902.47;;;20.00;66.06
44441;BME280;30146;52.268;20.944;2023-07-13T02:54:29;99894.87;;;19.99;66.22
44441;BME280;30146;52.268;20.944;2023-07-13T02:57:00;99896.89;;;20.01;66.44
44441;BME280;30146;52.268;20.944;2023-07-13T02:59:31;99898.17;;;19.99;66.30
44441;BME280;30146;52.268;20.944;2023-07-13T03:02:03;99894.39;;;19.99;66.42
44441;BME280;30146;52.268;20.944;2023-07-13T03:04:36;99894.41;;;19.98;66.45
44441;BME280;30146;52.268;20.944;2023-07-13T03:07:08;99895.10;;;19.99;66.39
44441;BME280;30146;52.268;20.944;2023-07-13T03:09:39;99898.30;;;20.00;66.65
44441;BME280;30146;52.268;20.944;2023-07-13T03:12:11;99894.45;;;20.01;66.69
44441;BME280;30146;52.268;20.944;2023-07-13T03:14:42;99893.59;;;20.01;66.64
44441;BME280;30146;52.268;20.944;2023-07-13T03:17:13;99898.80;;;20.01;66.64
44441;BME280;30146;52.268;20.944;2023-07-13T03:19:45;99895.70;;;20.00;66.64
44441;BME280;30146;52.268;20.944;2023-07-13T03:22:20;99899.30;;;20.01;66.71
44441;BME280;30146;52.268;20.944;2023-07-13T03:24:51;99897.02;;;20.02;66.78
44441;BME280;30146;52.268;20.944;2023-07-13T03:27:22;99892.70;;;20.01;66.93
44441;BME280;30146;52.268;20.944;2023-07-13T03:29:54;99892.17;;;20.01;66.88
44441;BME280;30146;52.268;20.944;2023-07-13T03:32:25;99889.23;;;20.01;66.79
44441;BME280;30146;52.268;20.944;2023-07-13T03:34:56;99887.51;;;20.01;66.97
44441;BME280;30146;52.268;20.944;2023-07-13T03:37:28;99882.93;;;20.02;66.82
44441;BME280;30146;52.268;20.944;2023-07-13T03:39:59;99877.43;;;20.05;66.93
44441;BME280;30146;52.268;20.944;2023-07-13T03:42:31;99870.38;;;20.07;67.06
44441;BME280;30146;52.268;20.944;2023-07-13T03:45:03;99872.18;;;20.11;66.99
44441;BME280;30146;52.268;20.944;2023-07-13T03:47:35;99870.51;;;20.19;67.22
44441;BME280;30146;52.268;20.944;2023-07-13T03:50:08;99872.52;;;20.27;67.34
44441;BME280;30146;52.268;20.944;2023-07-13T03:52:39;99873.62;;;20.35;67.38
44441;BME280;30146;52.268;20.944;2023-07-13T03:55:10;99876.95;;;20.43;67.16
44441;BME280;30146;52.268;20.944;2023-07-13T03:57:42;99876.67;;;20.54;67.34
44441;BME280;30146;52.268;20.944;2023-07-13T04:00:14;99878.59;;;20.67;67.33
44441;BME280;30146;52.268;20.944;2023-07-13T04:02:45;99884.42;;;20.82;67.21
44441;BME280;30146;52.268;20.944;2023-07-13T04:05:17;99884.02;;;20.98;67.18
44441;BME280;30146;52.268;20.944;2023-07-13T04:07:49;99883.67;;;21.15;67.15
44441;BME280;30146;52.268;20.944;2023-07-13T04:10:20;99883.66;;;21.32;67.04
44441;BME280;30146;52.268;20.944;2023-07-13T04:12:51;99882.27;;;21.50;66.89
44441;BME280;30146;52.268;20.944;2023-07-13T04:15:22;99889.80;;;21.69;66.66
44441;BME280;30146;52.268;20.944;2023-07-13T04:17:53;99893.46;;;21.88;66.69
44441;BME280;30146;52.268;20.944;2023-07-13T04:20:24;99901.84;;;22.12;66.52
44441;BME280;30146;52.268;20.944;2023-07-13T04:22:55;99906.36;;;22.39;66.55
44441;BME280;30146;52.268;20.944;2023-07-13T04:25:27;99908.88;;;22.70;66.39
44441;BME280;30146;52.268;20.944;2023-07-13T04:27:58;99912.94;;;23.03;66.03
44441;BME280;30146;52.268;20.944;2023-07-13T04:30:29;99920.43;;;23.36;65.37
44441;BME280;30146;52.268;20.944;2023-07-13T04:33:00;99927.98;;;23.58;65.00
44441;BME280;30146;52.268;20.944;2023-07-13T04:35:32;99930.33;;;23.70;64.66
44441;BME280;30146;52.268;20.944;2023-07-13T04:38:03;99928.36;;;23.77;64.29
44441;BME280;30146;52.268;20.944;2023-07-13T04:40:34;99925.48;;;23.78;63.64
44441;BME280;30146;52.268;20.944;2023-07-13T04:43:05;99930.23;;;23.78;63.35
44441;BME280;30146;52.268;20.944;2023-07-13T04:45:36;99932.88;;;23.78;63.23
44441;BME280;30146;52.268;20.944;2023-07-13T04:48:07;99934.40;;;23.76;63.15
44441;BME280;30146;52.268;20.944;2023-07-13T04:50:38;99936.42;;;23.75;63.20
44441;BME280;30146;52.268;20.944;2023-07-13T04:53:10;99938.91;;;23.69;63.04
44441;BME280;30146;52.268;20.944;2023-07-13T04:55:41;99932.02;;;23.62;62.96
44441;BME280;30146;52.268;20.944;2023-07-13T04:58:12;99934.65;;;23.55;62.85
44441;BME280;30146;52.268;20.944;2023-07-13T05:00:43;99934.19;;;23.49;63.06
44441;BME280;30146;52.268;20.944;2023-07-13T05:03:14;99930.07;;;23.43;63.03
44441;BME280;30146;52.268;20.944;2023-07-13T05:05:55;99929.70;;;23.39;63.08
44441;BME280;30146;52.268;20.944;2023-07-13T05:08:27;99932.89;;;23.33;63.16
44441;BME280;30146;52.268;20.944;2023-07-13T05:11:00;99940.02;;;23.28;63.25
44441;BME280;30146;52.268;20.944;2023-07-13T05:13:31;99943.61;;;23.24;63.34
44441;BME280;30146;52.268;20.944;2023-07-13T05:16:05;99950.34;;;23.22;63.58
44441;BME280;30146;52.268;20.944;2023-07-13T05:18:38;99950.94;;;23.21;63.68
44441;BME280;30146;52.268;20.944;2023-07-13T05:21:12;99954.17;;;23.22;63.90
44441;BME280;30146;52.268;20.944;2023-07-13T05:23:44;99953.85;;;23.24;64.03
44441;BME280;30146;52.268;20.944;2023-07-13T05:26:15;99960.20;;;23.26;64.00
44441;BME280;30146;52.268;20.944;2023-07-13T05:28:46;99963.36;;;23.28;64.01
44441;BME280;30146;52.268;20.944;2023-07-13T05:31:17;99970.16;;;23.31;63.96
44441;BME280;30146;52.268;20.944;2023-07-13T05:33:48;99977.35;;;23.35;64.00
44441;BME280;30146;52.268;20.944;2023-07-13T05:36:19;99981.59;;;23.40;64.05
44441;BME280;30146;52.268;20.944;2023-07-13T05:38:50;99984.89;;;23.45;64.07
44441;BME280;30146;52.268;20.944;2023-07-13T05:41:23;99993.17;;;23.54;64.18
44441;BME280;30146;52.268;20.944;2023-07-13T05:43:54;99993.64;;;23.65;64.22
44441;BME280;30146;52.268;20.944;2023-07-13T05:46:25;99992.62;;;23.77;64.22
44441;BME280;30146;52.268;20.944;2023-07-13T05:48:56;99992.31;;;23.92;64.21
44441;BME280;30146;52.268;20.944;2023-07-13T05:51:31;99992.95;;;24.12;64.24
44441;BME280;30146;52.268;20.944;2023-07-13T05:54:02;99992.11;;;24.24;64.09
44441;BME280;30146;52.268;20.944;2023-07-13T05:56:33;99993.17;;;24.36;63.80
44441;BME280;30146;52.268;20.944;2023-07-13T05:59:04;99987.96;;;24.43;63.38
44441;BME280;30146;52.268;20.944;2023-07-13T06:01:35;99978.64;;;24.46;63.13
44441;BME280;30146;52.268;20.944;2023-07-13T06:04:12;99973.31;;;24.49;62.84
44441;BME280;30146;52.268;20.944;2023-07-13T06:06:44;99967.42;;;24.49;62.07
44441;BME280;30146;52.268;20.944;2023-07-13T06:09:16;99971.34;;;24.46;61.99
44441;BME280;30146;52.268;20.944;2023-07-13T06:11:47;99975.68;;;24.41;61.90
44441;BME280;30146;52.268;20.944;2023-07-13T06:14:18;99976.77;;;24.43;62.02
44441;BME280;30146;52.268;20.944;2023-07-13T06:16:52;99972.45;;;24.68;62.64
44441;BME280;30146;52.268;20.944;2023-07-13T06:19:23;99973.74;;;25.09;63.14
44441;BME280;30146;52.268;20.944;2023-07-13T06:21:54;99974.67;;;25.37;62.51
44441;BME280;30146;52.268;20.944;2023-07-13T06:24:26;99971.36;;;25.66;61.90
44441;BME280;30146;52.268;20.944;2023-07-13T06:26:57;99968.73;;;26.28;61.59
44441;BME280;30146;52.268;20.944;2023-07-13T06:29:28;99963.89;;;26.83;61.41
44441;BME280;30146;52.268;20.944;2023-07-13T06:32:00;99968.21;;;27.62;61.08
44441;BME280;30146;52.268;20.944;2023-07-13T06:34:32;99969.54;;;28.72;60.49
44441;BME280;30146;52.268;20.944;2023-07-13T06:37:05;99972.92;;;29.81;59.03
44441;BME280;30146;52.268;20.944;2023-07-13T06:39:36;99973.98;;;30.73;57.62
44441;BME280;30146;52.268;20.944;2023-07-13T06:42:08;99967.18;;;31.65;56.17
44441;BME280;30146;52.268;20.944;2023-07-13T06:44:41;99970.61;;;32.48;54.97
44441;BME280;30146;52.268;20.944;2023-07-13T06:47:12;99970.21;;;33.20;53.34
44441;BME280;30146;52.268;20.944;2023-07-13T06:49:43;99966.17;;;33.66;51.50
44441;BME280;30146;52.268;20.944;2023-07-13T06:52:14;99965.88;;;33.91;49.61
44441;BME280;30146;52.268;20.944;2023-07-13T06:54:45;99965.93;;;33.98;47.90
44441;BME280;30146;52.268;20.944;2023-07-13T06:57:16;99959.64;;;33.81;45.70
44441;BME280;30146;52.268;20.944;2023-07-13T06:59:48;99954.33;;;33.61;44.71
44441;BME280;30146;52.268;20.944;2023-07-13T07:02:19;99948.17;;;33.44;44.45
44441;BME280;30146;52.268;20.944;2023-07-13T07:04:50;99946.60;;;33.40;44.69
44441;BME280;30146;52.268;20.944;2023-07-13T07:07:23;99950.38;;;33.42;44.42
44441;BME280;30146;52.268;20.944;2023-07-13T07:09:54;99951.04;;;33.46;44.24
44441;BME280;30146;52.268;20.944;2023-07-13T07:12:25;99950.91;;;33.52;43.50
44441;BME280;30146;52.268;20.944;2023-07-13T07:14:56;99952.84;;;33.56;43.22
44441;BME280;30146;52.268;20.944;2023-07-13T07:17:27;99951.20;;;33.59;42.42
44441;BME280;30146;52.268;20.944;2023-07-13T07:19:58;99949.92;;;33.62;42.39
44441;BME280;30146;52.268;20.944;2023-07-13T07:22:29;99949.55;;;33.62;41.59
44441;BME280;30146;52.268;20.944;2023-07-13T07:25:00;99954.64;;;33.53;41.05
44441;BME280;30146;52.268;20.944;2023-07-13T07:27:32;99951.77;;;33.42;40.67
44441;BME280;30146;52.268;20.944;2023-07-13T07:30:07;99951.67;;;33.15;40.39
44441;BME280;30146;52.268;20.944;2023-07-13T07:32:41;99954.11;;;33.10;41.10
44441;BME280;30146;52.268;20.944;2023-07-13T07:35:16;99952.77;;;33.08;40.60
44441;BME280;30146;52.268;20.944;2023-07-13T07:37:47;99954.79;;;32.99;40.70
44441;BME280;30146;52.268;20.944;2023-07-13T07:40:20;99959.27;;;32.97;39.96
44441;BME280;30146;52.268;20.944;2023-07-13T07:42:54;99961.42;;;32.77;38.69
44441;BME280;30146;52.268;20.944;2023-07-13T07:45:26;99959.05;;;32.52;38.39
44441;BME280;30146;52.268;20.944;2023-07-13T07:47:57;99955.02;;;32.38;38.65
44441;BME280;30146;52.268;20.944;2023-07-13T07:50:29;99960.30;;;32.34;38.63
44441;BME280;30146;52.268;20.944;2023-07-13T07:53:00;99959.14;;;32.35;39.03
44441;BME280;30146;52.268;20.944;2023-07-13T07:55:34;99962.85;;;32.38;38.71
44441;BME280;30146;52.268;20.944;2023-07-13T07:58:08;99960.06;;;32.31;38.44
44441;BME280;30146;52.268;20.944;2023-07-13T08:01:06;99958.61;;;32.28;38.67
44441;BME280;30146;52.268;20.944;2023-07-13T08:03:40;99958.70;;;32.30;38.83
44441;BME280;30146;52.268;20.944;2023-07-13T08:06:14;99955.81;;;32.28;38.23
44441;BME280;30146;52.268;20.944;2023-07-13T08:09:05;99963.71;;;32.15;37.80
44441;BME280;30146;52.268;20.944;2023-07-13T08:11:37;99963.89;;;32.15;38.02
44441;BME280;30146;52.268;20.944;2023-07-13T08:14:19;99965.16;;;32.21;38.09
44441;BME280;30146;52.268;20.944;2023-07-13T08:16:50;99963.57;;;32.18;37.55
44441;BME280;30146;52.268;20.944;2023-07-13T08:19:22;99965.46;;;32.17;37.60
44441;BME280;30146;52.268;20.944;2023-07-13T08:21:54;99964.92;;;32.23;37.94
44441;BME280;30146;52.268;20.944;2023-07-13T08:24:25;99966.30;;;32.26;37.71
44441;BME280;30146;52.268;20.944;2023-07-13T08:26:58;99962.69;;;32.30;37.85
44441;BME280;30146;52.268;20.944;2023-07-13T08:29:29;99962.44;;;32.36;37.84
44441;BME280;30146;52.268;20.944;2023-07-13T08:32:01;99960.56;;;32.38;37.33
44441;BME280;30146;52.268;20.944;2023-07-13T08:34:33;99969.08;;;32.31;36.80
44441;BME280;30146;52.268;20.944;2023-07-13T08:37:06;99971.17;;;32.27;36.92
44441;BME280;30146;52.268;20.944;2023-07-13T08:39:38;99969.14;;;32.29;36.77
44441;BME280;30146;52.268;20.944;2023-07-13T08:42:16;99973.53;;;32.31;36.88
44441;BME280;30146;52.268;20.944;2023-07-13T08:44:59;99973.02;;;32.27;36.54
44441;BME280;30146;52.268;20.944;2023-07-13T08:47:39;99974.36;;;32.08;36.24
44441;BME280;30146;52.268;20.944;2023-07-13T08:50:15;99978.93;;;31.88;36.02
44441;BME280;30146;52.268;20.944;2023-07-13T08:52:47;99984.20;;;31.64;35.85
44441;BME280;30146;52.268;20.944;2023-07-13T08:55:22;99983.88;;;31.52;36.56
44441;BME280;30146;52.268;20.944;2023-07-13T08:57:59;99983.57;;;31.39;36.27
44441;BME280;30146;52.268;20.944;2023-07-13T09:00:37;99989.20;;;31.21;36.72
44441;BME280;30146;52.268;20.944;2023-07-13T09:03:16;99990.15;;;31.08;37.48
44441;BME280;30146;52.268;20.944;2023-07-13T09:05:53;99992.05;;;31.08;37.60
44441;BME280;30146;52.268;20.944;2023-07-13T09:08:37;99990.21;;;31.04;37.28
44441;BME280;30146;52.268;20.944;2023-07-13T09:11:19;99993.34;;;30.90;37.34
44441;BME280;30146;52.268;20.944;2023-07-13T09:14:00;99987.85;;;30.81;37.46
44441;BME280;30146;52.268;20.944;2023-07-13T09:16:37;99987.58;;;30.79;37.65
44441;BME280;30146;52.268;20.944;2023-07-13T09:19:23;99986.77;;;30.73;37.73
44441;BME280;30146;52.268;20.944;2023-07-13T09:21:57;99988.69;;;30.61;37.88
44441;BME280;30146;52.268;20.944;2023-07-13T09:24:37;99992.09;;;30.49;38.21
44441;BME280;30146;52.268;20.944;2023-07-13T09:27:15;99992.85;;;30.38;38.56
44441;BME280;30146;52.268;20.944;2023-07-13T09:29:50;99991.00;;;30.17;38.29
44441;BME280;30146;52.268;20.944;2023-07-13T09:32:26;99990.57;;;29.85;38.50
44441;BME280;30146;52.268;20.944;2023-07-13T09:34:57;99990.77;;;29.57;38.74
44441;BME280;30146;52.268;20.944;2023-07-13T09:37:32;99992.23;;;29.30;39.03
44441;BME280;30146;52.268;20.944;2023-07-13T09:40:08;99988.80;;;29.00;39.25
44441;BME280;30146;52.268;20.944;2023-07-13T09:42:42;99985.25;;;28.74;39.63
44441;BME280;30146;52.268;20.944;2023-07-13T09:45:21;99981.13;;;28.51;39.86
44441;BME280;30146;52.268;20.944;2023-07-13T09:48:05;99975.56;;;28.27;40.10
44441;BME280;30146;52.268;20.944;2023-07-13T09:50:37;99972.33;;;28.02;40.23
44441;BME280;30146;52.268;20.944;2023-07-13T09:53:15;99967.27;;;27.83;40.62
44441;BME280;30146;52.268;20.944;2023-07-13T09:55:48;99964.63;;;27.75;40.90
44441;BME280;30146;52.268;20.944;2023-07-13T09:58:24;99963.11;;;27.77;41.28
44441;BME280;30146;52.268;20.944;2023-07-13T10:00:58;99959.32;;;27.82;41.31
44441;BME280;30146;52.268;20.944;2023-07-13T10:03:32;99962.70;;;27.92;41.31
44441;BME280;30146;52.268;20.944;2023-07-13T10:06:14;99960.75;;;27.98;41.38
44441;BME280;30146;52.268;20.944;2023-07-13T10:08:48;99950.60;;;28.00;41.28
44441;BME280;30146;52.268;20.944;2023-07-13T10:11:23;99945.98;;;27.98;41.37
44441;BME280;30146;52.268;20.944;2023-07-13T10:13:57;99947.48;;;27.97;41.44
44441;BME280;30146;52.268;20.944;2023-07-13T10:16:32;99948.27;;;27.92;41.33
44441;BME280;30146;52.268;20.944;2023-07-13T10:19:03;99948.27;;;27.86;41.44
44441;BME280;30146;52.268;20.944;2023-07-13T10:21:42;99955.60;;;27.78;41.62
44441;BME280;30146;52.268;20.944;2023-07-13T10:24:17;99950.83;;;27.67;41.71
44441;BME280;30146;52.268;20.944;2023-07-13T10:26:49;99949.89;;;27.53;41.88
44441;BME280;30146;52.268;20.944;2023-07-13T10:29:24;99950.95;;;27.39;41.97
44441;BME280;30146;52.268;20.944;2023-07-13T10:31:57;99956.81;;;27.21;42.33
44441;BME280;30146;52.268;20.944;2023-07-13T10:34:29;99963.60;;;27.01;42.84
44441;BME280;30146;52.268;20.944;2023-07-13T10:37:01;99978.05;;;26.79;43.62
44441;BME280;30146;52.268;20.944;2023-07-13T10:39:35;99994.31;;;26.56;44.43
44441;BME280;30146;52.268;20.944;2023-07-13T10:42:11;100002.10;;;26.31;44.96
44441;BME280;30146;52.268;20.944;2023-07-13T10:44:45;100010.84;;;26.01;45.55
44441;BME280;30146;52.268;20.944;2023-07-13T10:47:17;100022.25;;;25.73;46.31
44441;BME280;30146;52.268;20.944;2023-07-13T10:49:52;100029.02;;;25.52;47.28
44441;BME280;30146;52.268;20.944;2023-07-13T10:52:46;100029.25;;;25.35;48.01
44441;BME280;30146;52.268;20.944;2023-07-13T10:55:35;100021.82;;;25.17;48.75
44441;BME280;30146;52.268;20.944;2023-07-13T10:58:19;100023.80;;;25.00;49.36
44441;BME280;30146;52.268;20.944;2023-07-13T11:00:56;100022.90;;;24.86;49.63
44441;BME280;30146;52.268;20.944;2023-07-13T11:03:30;100019.29;;;24.73;50.09
44441;BME280;30146;52.268;20.944;2023-07-13T11:06:11;100019.97;;;24.59;50.44
44441;BME280;30146;52.268;20.944;2023-07-13T11:08:55;100020.79;;;24.46;50.59
44441;BME280;30146;52.268;20.944;2023-07-13T11:11:38;100023.92;;;24.29;50.74
44441;BME280;30146;52.268;20.944;2023-07-13T11:14:30;100038.83;;;24.15;51.02
44441;BME280;30146;52.268;20.944;2023-07-13T11:17:32;100047.92;;;24.00;51.69
44441;BME280;30146;52.268;20.944;2023-07-13T11:20:26;100046.05;;;23.89;52.12
44441;BME280;30146;52.268;20.944;2023-07-13T11:23:28;100044.23;;;23.78;52.41
44441;BME280;30146;52.268;20.944;2023-07-13T11:26:00;100053.13;;;23.65;52.66
44441;BME280;30146;52.268;20.944;2023-07-13T11:28:33;100058.52;;;23.55;53.14
44441;BME280;30146;52.268;20.944;2023-07-13T11:31:15;100058.71;;;23.44;52.95
44441;BME280;30146;52.268;20.944;2023-07-13T11:34:06;100055.90;;;23.32;53.29
44441;BME280;30146;52.268;20.944;2023-07-13T11:36:45;100068.31;;;23.23;54.00
44441;BME280;30146;52.268;20.944;2023-07-13T11:39:21;100075.84;;;23.17;54.31
44441;BME280;30146;52.268;20.944;2023-07-13T11:41:58;100082.23;;;23.13;54.78
44441;BME280;30146;52.268;20.944;2023-07-13T11:44:32;100081.13;;;23.09;54.92
44441;BME280;30146;52.268;20.944;2023-07-13T11:47:16;100082.20;;;23.03;54.94
44441;BME280;30146;52.268;20.944;2023-07-13T11:49:51;100075.21;;;22.98;55.19
44441;BME280;30146;52.268;20.944;2023-07-13T11:52:26;100075.86;;;22.90;55.15
44441;BME280;30146;52.268;20.944;2023-07-13T11:55:11;100076.77;;;22.82;55.35
44441;BME280;30146;52.268;20.944;2023-07-13T11:57:49;100078.34;;;22.76;55.73
44441;BME280;30146;52.268;20.944;2023-07-13T12:00:23;100080.70;;;22.72;55.88
44441;BME280;30146;52.268;20.944;2023-07-13T12:02:58;100085.38;;;22.70;56.22
44441;BME280;30146;52.268;20.944;2023-07-13T12:05:30;100082.85;;;22.68;56.47
44441;BME280;30146;52.268;20.944;2023-07-13T12:08:10;100083.36;;;22.68;56.77
44441;BME280;30146;52.268;20.944;2023-07-13T12:11:02;100078.48;;;22.68;56.66
44441;BME280;30146;52.268;20.944;2023-07-13T12:13:39;100069.73;;;22.66;56.67
44441;BME280;30146;52.268;20.944;2023-07-13T12:16:16;100063.23;;;22.65;56.78
44441;BME280;30146;52.268;20.944;2023-07-13T12:18:48;100057.42;;;22.63;56.92
44441;BME280;30146;52.268;20.944;2023-07-13T12:21:22;100057.85;;;22.59;56.69
44441;BME280;30146;52.268;20.944;2023-07-13T12:23:54;100058.90;;;22.53;56.69
44441;BME280;30146;52.268;20.944;2023-07-13T12:26:25;100057.77;;;22.46;56.64
44441;BME280;30146;52.268;20.944;2023-07-13T12:28:58;100058.67;;;22.38;56.82
44441;BME280;30146;52.268;20.944;2023-07-13T12:31:36;100058.65;;;22.26;56.78
44441;BME280;30146;52.268;20.944;2023-07-13T12:34:11;100060.78;;;22.12;56.69
44441;BME280;30146;52.268;20.944;2023-07-13T12:36:45;100056.75;;;21.95;56.92
44441;BME280;30146;52.268;20.944;2023-07-13T12:39:20;100052.93;;;21.81;56.91
44441;BME280;30146;52.268;20.944;2023-07-13T12:41:54;100050.73;;;21.68;57.22
44441;BME280;30146;52.268;20.944;2023-07-13T12:44:41;100050.07;;;21.56;57.50
44441;BME280;30146;52.268;20.944;2023-07-13T12:47:14;100055.63;;;21.53;58.04
44441;BME280;30146;52.268;20.944;2023-07-13T12:49:50;100058.52;;;21.55;58.60
44441;BME280;30146;52.268;20.944;2023-07-13T12:52:28;100051.23;;;21.57;58.97
44441;BME280;30146;52.268;20.944;2023-07-13T12:55:05;100047.98;;;21.59;59.01
44441;BME280;30146;52.268;20.944;2023-07-13T12:57:49;100040.57;;;21.58;58.79
44441;BME280;30146;52.268;20.944;2023-07-13T13:00:29;100042.77;;;21.53;58.63
44441;BME280;30146;52.268;20.944;2023-07-13T13:03:06;100044.19;;;21.49;58.84
44441;BME280;30146;52.268;20.944;2023-07-13T13:05:44;100044.02;;;21.46;59.11
44441;BME280;30146;52.268;20.944;2023-07-13T13:08:15;100048.49;;;21.47;59.43
44441;BME280;30146;52.268;20.944;2023-07-13T13:10:46;100050.11;;;21.49;59.62
44441;BME280;30146;52.268;20.944;2023-07-13T13:13:18;100051.08;;;21.51;59.64
44441;BME280;30146;52.268;20.944;2023-07-13T13:15:49;100049.45;;;21.52;59.80
44441;BME280;30146;52.268;20.944;2023-07-13T13:18:21;100049.89;;;21.56;60.14
44441;BME280;30146;52.268;20.944;2023-07-13T13:20:53;100047.45;;;21.62;60.28
44441;BME280;30146;52.268;20.944;2023-07-13T13:23:24;100055.27;;;21.68;60.46